createdAt,value
2019-03-23T00:00:01.055Z,13.27
2019-03-23T00:00:40.064Z,12.00
2019-03-23T00:01:18.655Z,11.77
2019-03-23T00:01:54.808Z,12.83
2019-03-23T00:02:30.827Z,10.83
2019-03-23T00:03:07.143Z,13.53
2019-03-23T00:03:43.097Z,13.33
2019-03-23T00:04:19.419Z,12.07
2019-03-23T00:04:55.679Z,10.33
2019-03-23T00:05:31.739Z,15.20
2019-03-23T00:06:07.698Z,12.57
2019-03-23T00:06:43.659Z,12.73
2019-03-23T00:07:20.017Z,15.00
2019-03-23T00:07:55.998Z,12.17
2019-03-23T00:08:32.322Z,12.93
2019-03-23T00:09:08.781Z,19.47
2019-03-23T00:09:44.839Z,12.77
2019-03-23T00:10:20.927Z,13.80
2019-03-23T00:10:56.994Z,11.10
2019-03-23T00:11:33.063Z,11.07
2019-03-23T00:12:09.378Z,9.63
2019-03-23T00:12:45.482Z,11.37
2019-03-23T00:13:21.489Z,13.83
2019-03-23T00:13:57.942Z,12.90
2019-03-23T00:14:34.402Z,16.13
2019-03-23T00:15:11.002Z,12.50
2019-03-23T00:15:47.821Z,11.87
2019-03-23T00:16:24.295Z,12.87
2019-03-23T00:17:00.262Z,12.07
2019-03-23T00:17:36.256Z,14.50
2019-03-23T00:18:12.412Z,11.43
2019-03-23T00:18:48.780Z,15.00
2019-03-23T00:19:24.786Z,13.90
2019-03-23T00:20:00.774Z,12.57
2019-03-23T00:20:37.019Z,16.63
2019-03-23T00:21:13.054Z,13.63
2019-03-23T00:21:49.494Z,11.67
2019-03-23T00:22:25.692Z,11.33
2019-03-23T00:23:01.662Z,13.53
2019-03-23T00:23:37.742Z,15.87
2019-03-23T00:24:14.537Z,14.17
2019-03-23T00:24:50.649Z,17.63
2019-03-23T00:25:26.659Z,13.70
2019-03-23T00:26:02.664Z,14.53
2019-03-23T00:26:39.865Z,14.83
2019-03-23T00:27:15.870Z,11.63
2019-03-23T00:27:51.871Z,12.60
2019-03-23T00:28:27.864Z,15.53
2019-03-23T00:29:03.835Z,11.23
2019-03-23T00:29:40.623Z,17.57
2019-03-23T00:30:16.781Z,14.23
2019-03-23T00:30:53.766Z,13.20
2019-03-23T00:31:30.662Z,14.90
2019-03-23T00:32:06.875Z,13.73
2019-03-23T00:32:43.022Z,14.97
2019-03-23T00:33:19.112Z,15.57
2019-03-23T00:33:55.684Z,16.47
2019-03-23T00:34:31.643Z,13.97
2019-03-23T00:35:08.215Z,15.60
2019-03-23T00:35:44.169Z,15.87
2019-03-23T00:36:20.469Z,12.73
2019-03-23T00:36:56.853Z,16.03
2019-03-23T00:37:33.250Z,13.63
2019-03-23T00:38:09.315Z,15.43
2019-03-23T00:38:45.545Z,11.53
2019-03-23T00:39:21.833Z,15.10
2019-03-23T00:39:58.336Z,12.43
2019-03-23T00:40:34.400Z,13.63
2019-03-23T00:41:10.836Z,14.03
2019-03-23T00:41:46.832Z,16.47
2019-03-23T00:42:22.818Z,13.40
2019-03-23T00:42:58.968Z,14.40
2019-03-23T00:43:34.936Z,14.70
2019-03-23T00:44:10.901Z,13.47
2019-03-23T00:44:47.322Z,13.57
2019-03-23T00:45:24.120Z,18.60
2019-03-23T00:46:00.115Z,16.53
2019-03-23T00:46:36.495Z,17.77
2019-03-23T00:47:12.560Z,12.87
2019-03-23T00:47:48.548Z,11.77
2019-03-23T00:48:24.626Z,13.93
2019-03-23T00:49:00.995Z,15.63
2019-03-23T00:49:36.946Z,14.63
2019-03-23T00:50:13.502Z,13.77
2019-03-23T00:50:49.578Z,13.27
2019-03-23T00:51:25.569Z,14.10
2019-03-23T00:52:01.546Z,16.27
2019-03-23T00:52:37.625Z,15.13
2019-03-23T00:53:13.869Z,13.83
2019-03-23T00:53:49.963Z,15.07
2019-03-23T00:54:26.059Z,16.03
2019-03-23T00:55:02.728Z,17.47
2019-03-23T00:55:39.020Z,16.40
2019-03-23T00:56:16.572Z,12.90
2019-03-23T00:56:53.133Z,14.17
2019-03-23T00:57:29.279Z,13.47
2019-03-23T00:58:05.361Z,17.57
2019-03-23T00:58:41.337Z,12.03
2019-03-23T00:59:17.517Z,17.60
2019-03-23T00:59:54.017Z,12.53
2019-03-23T01:00:30.170Z,12.97
2019-03-23T01:01:06.155Z,13.33
2019-03-23T01:01:42.231Z,13.03
2019-03-23T01:02:18.301Z,13.67
2019-03-23T01:02:54.722Z,14.90
2019-03-23T01:03:30.749Z,13.23
2019-03-23T01:04:06.818Z,13.93
2019-03-23T01:04:42.891Z,14.07
2019-03-23T01:05:19.356Z,18.73
2019-03-23T01:05:55.378Z,15.27
2019-03-23T01:06:31.893Z,15.17
2019-03-23T01:07:07.866Z,15.17
2019-03-23T01:07:43.902Z,13.90
2019-03-23T01:08:19.878Z,12.10
2019-03-23T01:08:56.237Z,11.30
2019-03-23T01:09:32.248Z,11.80
2019-03-23T01:10:09.086Z,15.47
2019-03-23T01:10:45.063Z,13.70
2019-03-23T01:11:21.031Z,12.87
2019-03-23T01:11:57.100Z,13.33
2019-03-23T01:12:33.125Z,14.77
2019-03-23T01:13:09.498Z,14.43
2019-03-23T01:13:45.557Z,14.17
2019-03-23T01:14:21.589Z,11.57
2019-03-23T01:14:57.601Z,15.00
2019-03-23T01:15:33.551Z,13.33
2019-03-23T01:16:09.880Z,14.67
2019-03-23T01:16:45.895Z,15.57
2019-03-23T01:17:21.948Z,16.43
2019-03-23T01:17:58.032Z,14.57
2019-03-23T01:18:34.018Z,16.53
2019-03-23T01:19:10.100Z,13.87
2019-03-23T01:19:46.193Z,13.17
2019-03-23T01:20:22.281Z,17.00
2019-03-23T01:20:58.602Z,19.23
2019-03-23T01:21:34.667Z,17.00
2019-03-23T01:22:11.031Z,13.40
2019-03-23T01:22:47.053Z,12.77
2019-03-23T01:23:23.634Z,19.23
2019-03-23T01:24:00.165Z,13.77
2019-03-23T01:24:36.231Z,16.13
2019-03-23T01:25:12.833Z,12.70
2019-03-23T01:25:49.531Z,11.67
2019-03-23T01:26:25.823Z,14.23
2019-03-23T01:27:01.830Z,19.67
2019-03-23T01:27:37.918Z,12.00
2019-03-23T01:28:14.006Z,13.07
2019-03-23T01:28:50.025Z,13.80
2019-03-23T01:29:26.077Z,11.80
2019-03-23T01:30:02.436Z,14.10
2019-03-23T01:30:38.416Z,14.90
2019-03-23T01:31:14.631Z,15.00
2019-03-23T01:31:50.878Z,12.63
2019-03-23T01:32:27.078Z,13.10
2019-03-23T01:33:03.459Z,16.30
2019-03-23T01:33:40.010Z,18.53
2019-03-23T01:34:16.311Z,13.30
2019-03-23T01:34:52.323Z,12.73
2019-03-23T01:35:28.359Z,13.77
2019-03-23T01:36:04.473Z,13.20
2019-03-23T01:36:40.437Z,17.10
2019-03-23T01:37:16.395Z,13.27
2019-03-23T01:37:52.434Z,13.40
2019-03-23T01:38:29.266Z,13.50
2019-03-23T01:39:07.091Z,15.67
2019-03-23T01:39:43.396Z,13.53
2019-03-23T01:40:19.371Z,16.53
2019-03-23T01:40:55.393Z,14.63
2019-03-23T01:41:31.376Z,18.93
2019-03-23T01:42:07.371Z,12.93
2019-03-23T01:42:43.439Z,14.50
2019-03-23T01:43:19.471Z,16.27
2019-03-23T01:43:55.568Z,12.10
2019-03-23T01:44:31.780Z,16.77
2019-03-23T01:45:08.644Z,12.63
2019-03-23T01:45:44.829Z,13.50
2019-03-23T01:46:20.931Z,14.10
2019-03-23T01:46:57.125Z,15.90
2019-03-23T01:47:33.516Z,14.23
2019-03-23T01:48:09.878Z,16.97
2019-03-23T01:48:45.842Z,15.67
2019-03-23T01:49:21.949Z,15.80
2019-03-23T01:49:57.945Z,11.40
2019-03-23T01:50:33.954Z,13.97
2019-03-23T01:51:09.926Z,15.13
2019-03-23T01:51:46.253Z,12.17
2019-03-23T01:52:22.574Z,14.93
2019-03-23T01:52:58.944Z,16.23
2019-03-23T01:53:34.911Z,16.27
2019-03-23T01:54:10.873Z,18.87
2019-03-23T01:54:46.840Z,11.07
2019-03-23T01:55:22.866Z,13.57
2019-03-23T01:55:59.020Z,15.73
2019-03-23T01:56:35.100Z,14.27
2019-03-23T01:57:11.085Z,13.93
2019-03-23T01:57:47.067Z,14.57
2019-03-23T01:58:23.162Z,15.03
2019-03-23T01:58:59.523Z,13.60
2019-03-23T01:59:35.587Z,12.70
2019-03-23T02:00:11.945Z,16.27
2019-03-23T02:00:47.922Z,14.17
2019-03-23T02:01:24.105Z,14.60
2019-03-23T02:02:00.566Z,13.30
2019-03-23T02:02:36.833Z,16.00
2019-03-23T02:03:13.266Z,13.93
2019-03-23T02:03:50.054Z,15.43
2019-03-23T02:04:26.522Z,15.43
2019-03-23T02:05:02.511Z,12.63
2019-03-23T02:05:38.612Z,18.67
2019-03-23T02:06:14.573Z,15.43
2019-03-23T02:06:51.483Z,17.23
2019-03-23T02:07:27.878Z,13.30
2019-03-23T02:08:03.858Z,11.70
2019-03-23T02:08:39.879Z,14.40
2019-03-23T02:09:15.829Z,13.47
2019-03-23T02:09:51.833Z,18.20
2019-03-23T02:10:27.866Z,15.93
2019-03-23T02:11:04.693Z,18.73
2019-03-23T02:11:41.471Z,14.53
2019-03-23T02:12:17.449Z,12.63
2019-03-23T02:12:53.574Z,13.10
2019-03-23T02:13:29.597Z,13.77
2019-03-23T02:14:05.663Z,15.17
2019-03-23T02:14:41.639Z,18.37
2019-03-23T02:15:17.898Z,12.50
2019-03-23T02:15:54.023Z,14.50
2019-03-23T02:16:30.026Z,12.80
2019-03-23T02:17:05.992Z,14.90
2019-03-23T02:17:42.261Z,16.67
2019-03-23T02:18:18.311Z,14.03
2019-03-23T02:18:54.397Z,15.37
2019-03-23T02:19:30.430Z,14.57
2019-03-23T02:20:07.852Z,14.67
2019-03-23T02:20:43.854Z,13.67
2019-03-23T02:21:20.279Z,13.97
2019-03-23T02:21:57.192Z,17.13
2019-03-23T02:22:33.619Z,15.70
2019-03-23T02:23:09.642Z,15.03
2019-03-23T02:23:45.973Z,13.10
2019-03-23T02:24:22.013Z,13.50
2019-03-23T02:24:58.359Z,15.10
2019-03-23T02:25:34.483Z,13.43
2019-03-23T02:26:10.457Z,17.20
2019-03-23T02:26:46.448Z,12.73
2019-03-23T02:27:22.575Z,13.73
2019-03-23T02:27:59.079Z,14.03
2019-03-23T02:28:35.447Z,16.47
2019-03-23T02:29:11.430Z,17.57
2019-03-23T02:29:47.798Z,12.70
2019-03-23T02:30:23.800Z,13.63
2019-03-23T02:31:00.761Z,18.03
2019-03-23T02:31:36.776Z,14.50
2019-03-23T02:32:12.914Z,15.83
2019-03-23T02:32:48.903Z,14.20
2019-03-23T02:33:25.242Z,16.13
2019-03-23T02:34:01.372Z,15.53
2019-03-23T02:34:37.757Z,18.87
2019-03-23T02:35:13.941Z,12.83
2019-03-23T02:35:49.926Z,13.67
2019-03-23T02:36:26.173Z,12.27
2019-03-23T02:37:02.232Z,14.17
2019-03-23T02:37:38.217Z,19.50
2019-03-23T02:38:14.193Z,16.20
2019-03-23T02:38:50.581Z,15.00
2019-03-23T02:39:26.633Z,14.77
2019-03-23T02:40:02.646Z,16.83
2019-03-23T02:40:38.794Z,15.53
2019-03-23T02:41:14.873Z,16.27
2019-03-23T02:41:51.010Z,14.87
2019-03-23T02:42:27.497Z,17.17
2019-03-23T02:43:03.817Z,14.70
2019-03-23T02:43:39.948Z,13.33
2019-03-23T02:44:15.907Z,14.93
2019-03-23T02:44:52.450Z,16.03
2019-03-23T02:45:30.382Z,21.83
2019-03-23T02:46:06.217Z,13.87
2019-03-23T02:46:42.977Z,15.00
2019-03-23T02:47:19.639Z,16.30
2019-03-23T02:47:55.642Z,16.50
2019-03-23T02:48:32.130Z,12.90
2019-03-23T02:49:08.554Z,17.77
2019-03-23T02:49:44.525Z,16.00
2019-03-23T02:50:20.817Z,16.47
2019-03-23T02:50:56.953Z,14.83
2019-03-23T02:51:32.945Z,12.27
2019-03-23T02:52:08.956Z,16.33
2019-03-23T02:52:44.919Z,17.07
2019-03-23T02:53:21.280Z,15.87
2019-03-23T02:53:57.285Z,16.07
2019-03-23T02:54:33.365Z,20.67
2019-03-23T02:55:09.975Z,15.47
2019-03-23T02:55:45.941Z,14.13
2019-03-23T02:56:22.253Z,15.20
2019-03-23T02:56:58.360Z,13.53
2019-03-23T02:57:34.601Z,16.47
2019-03-23T02:58:10.585Z,13.17
2019-03-23T02:58:46.580Z,13.07
2019-03-23T02:59:22.580Z,16.30
2019-03-23T02:59:58.639Z,15.90
2019-03-23T03:00:35.003Z,16.87
2019-03-23T03:01:11.306Z,16.77
2019-03-23T03:01:47.385Z,14.47
2019-03-23T03:02:23.414Z,15.23
2019-03-23T03:02:59.500Z,14.13
2019-03-23T03:03:36.230Z,17.17
2019-03-23T03:04:12.218Z,15.67
2019-03-23T03:04:48.226Z,20.63
2019-03-23T03:05:24.616Z,17.77
2019-03-23T03:06:00.741Z,15.17
2019-03-23T03:06:36.711Z,17.40
2019-03-23T03:07:12.706Z,17.93
2019-03-23T03:07:48.793Z,15.57
2019-03-23T03:08:25.008Z,13.83
2019-03-23T03:09:01.226Z,13.70
2019-03-23T03:09:37.862Z,15.77
2019-03-23T03:10:17.173Z,16.30
2019-03-23T03:10:53.532Z,18.10
2019-03-23T03:11:29.503Z,16.67
2019-03-23T03:12:05.481Z,15.20
2019-03-23T03:12:41.452Z,17.83
2019-03-23T03:13:17.741Z,15.03
2019-03-23T03:13:54.188Z,13.83
2019-03-23T03:14:30.170Z,15.87
2019-03-23T03:15:06.804Z,15.23
2019-03-23T03:15:42.789Z,13.53
2019-03-23T03:16:18.788Z,19.10
2019-03-23T03:16:54.776Z,15.97
2019-03-23T03:17:30.842Z,18.27
2019-03-23T03:18:07.840Z,19.37
2019-03-23T03:18:44.714Z,17.90
2019-03-23T03:19:21.072Z,16.43
2019-03-23T03:19:57.418Z,15.87
2019-03-23T03:20:33.762Z,16.63
2019-03-23T03:21:09.759Z,16.47
2019-03-23T03:21:46.055Z,21.67
2019-03-23T03:22:22.436Z,18.93
2019-03-23T03:22:58.886Z,17.27
2019-03-23T03:23:34.957Z,16.23
2019-03-23T03:24:10.922Z,19.63
2019-03-23T03:24:47.334Z,22.70
2019-03-23T03:25:23.404Z,21.90
2019-03-23T03:25:59.454Z,18.83
2019-03-23T03:26:36.087Z,18.10
2019-03-23T03:27:12.157Z,18.17
2019-03-23T03:27:48.096Z,19.97
2019-03-23T03:28:24.776Z,18.23
2019-03-23T03:29:00.905Z,21.17
2019-03-23T03:29:37.244Z,21.87
2019-03-23T03:30:13.840Z,22.40
2019-03-23T03:30:49.829Z,19.47
2019-03-23T03:31:25.945Z,23.13
2019-03-23T03:32:02.395Z,20.17
2019-03-23T03:32:38.364Z,20.40
2019-03-23T03:33:14.433Z,23.13
2019-03-23T03:33:50.933Z,21.60
2019-03-23T03:34:26.962Z,22.30
2019-03-23T03:35:03.143Z,20.43
2019-03-23T03:35:39.463Z,24.07
2019-03-23T03:36:15.473Z,22.40
2019-03-23T03:36:51.440Z,25.87
2019-03-23T03:37:27.452Z,21.40
2019-03-23T03:38:03.415Z,23.40
2019-03-23T03:38:39.380Z,23.87
2019-03-23T03:39:15.817Z,22.13
2019-03-23T03:39:51.805Z,23.43
2019-03-23T03:40:27.937Z,25.00
2019-03-23T03:41:04.167Z,25.57
2019-03-23T03:41:40.472Z,24.57
2019-03-23T03:42:16.454Z,26.20
2019-03-23T03:42:53.198Z,26.57
2019-03-23T03:43:29.265Z,23.50
2019-03-23T03:44:05.403Z,27.50
2019-03-23T03:44:41.715Z,29.60
2019-03-23T03:45:24.182Z,27.77
2019-03-23T03:46:00.247Z,27.73
2019-03-23T03:46:36.207Z,28.13
2019-03-23T03:47:12.714Z,26.57
2019-03-23T03:47:48.698Z,26.87
2019-03-23T03:48:25.210Z,27.13
2019-03-23T03:49:12.457Z,23.07
2019-03-23T03:49:39.321Z,25.23
2019-03-23T03:50:15.479Z,27.57
2019-03-23T03:50:51.455Z,29.63
2019-03-23T03:51:27.577Z,26.07
2019-03-23T03:52:03.578Z,22.83
2019-03-23T03:52:39.546Z,29.70
2019-03-23T03:53:15.632Z,31.87
2019-03-23T03:53:51.982Z,24.90
2019-03-23T03:54:28.432Z,27.70
2019-03-23T03:55:04.517Z,30.00
2019-03-23T03:55:40.483Z,25.77
2019-03-23T03:56:16.449Z,28.07
2019-03-23T03:56:53.938Z,24.47
2019-03-23T03:57:30.458Z,26.17
2019-03-23T03:58:06.431Z,25.40
2019-03-23T03:58:42.504Z,31.40
2019-03-23T03:59:18.927Z,27.87
2019-03-23T03:59:55.291Z,25.50
2019-03-23T04:00:31.837Z,28.97
2019-03-23T04:01:07.816Z,26.60
2019-03-23T04:01:44.206Z,35.20
2019-03-23T04:02:20.202Z,23.77
2019-03-23T04:02:56.318Z,25.07
2019-03-23T04:03:32.631Z,25.20
2019-03-23T04:04:08.627Z,27.93
2019-03-23T04:04:44.603Z,22.83
2019-03-23T04:05:20.611Z,25.57
2019-03-23T04:05:57.015Z,26.50
2019-03-23T04:06:33.696Z,24.53
2019-03-23T04:07:10.687Z,24.50
2019-03-23T04:07:46.707Z,28.43
2019-03-23T04:08:22.798Z,25.87
2019-03-23T04:08:58.989Z,24.93
2019-03-23T04:09:34.976Z,25.57
2019-03-23T04:10:11.406Z,22.20
2019-03-23T04:10:47.533Z,28.37
2019-03-23T04:11:23.725Z,26.57
2019-03-23T04:11:59.878Z,27.93
2019-03-23T04:12:36.683Z,27.90
2019-03-23T04:13:12.666Z,26.70
2019-03-23T04:13:49.050Z,26.53
2019-03-23T04:14:25.473Z,24.57
2019-03-23T04:15:02.426Z,31.20
2019-03-23T04:15:38.402Z,25.90
2019-03-23T04:16:14.803Z,26.20
2019-03-23T04:16:50.896Z,25.83
2019-03-23T04:17:27.407Z,24.80
2019-03-23T04:18:03.768Z,30.03
2019-03-23T04:18:39.744Z,25.00
2019-03-23T04:19:15.744Z,22.87
2019-03-23T04:19:51.787Z,24.90
2019-03-23T04:20:27.830Z,26.67
2019-03-23T04:21:03.912Z,25.80
2019-03-23T04:21:39.870Z,25.17
2019-03-23T04:22:16.296Z,27.30
2019-03-23T04:22:52.397Z,25.77
2019-03-23T04:23:28.397Z,25.50
2019-03-23T04:24:04.739Z,22.37
2019-03-23T04:24:40.722Z,22.37
2019-03-23T04:25:17.152Z,24.33
2019-03-23T04:25:53.707Z,28.47
2019-03-23T04:26:29.730Z,21.10
2019-03-23T04:27:05.996Z,28.53
2019-03-23T04:27:42.282Z,22.33
2019-03-23T04:28:18.824Z,23.60
2019-03-23T04:28:55.365Z,25.83
2019-03-23T04:29:31.378Z,23.23
2019-03-23T04:30:08.270Z,26.13
2019-03-23T04:30:44.258Z,24.00
2019-03-23T04:31:20.257Z,22.60
2019-03-23T04:31:56.301Z,32.30
2019-03-23T04:32:32.341Z,25.60
2019-03-23T04:33:08.622Z,23.80
2019-03-23T04:33:44.695Z,20.67
2019-03-23T04:34:20.866Z,26.97
2019-03-23T04:34:57.790Z,22.83
2019-03-23T04:35:33.781Z,22.00
2019-03-23T04:36:09.764Z,26.20
2019-03-23T04:36:46.302Z,23.33
2019-03-23T04:37:22.307Z,24.80
2019-03-23T04:37:58.523Z,23.77
2019-03-23T04:38:34.501Z,23.80
2019-03-23T04:39:10.477Z,23.60
2019-03-23T04:39:47.002Z,24.43
2019-03-23T04:40:23.189Z,25.40
2019-03-23T04:40:59.660Z,23.20
2019-03-23T04:41:36.026Z,23.97
2019-03-23T04:42:12.001Z,22.30
2019-03-23T04:42:48.092Z,23.07
2019-03-23T04:43:24.458Z,26.73
2019-03-23T04:44:00.481Z,24.17
2019-03-23T04:44:36.453Z,21.33
2019-03-23T04:45:12.814Z,26.13
2019-03-23T04:45:48.864Z,23.40
2019-03-23T04:46:24.879Z,23.80
2019-03-23T04:47:01.265Z,24.17
2019-03-23T04:47:37.242Z,22.63
2019-03-23T04:48:13.242Z,29.07
2019-03-23T04:48:49.632Z,22.33
2019-03-23T04:49:25.618Z,25.90
2019-03-23T04:50:01.961Z,23.80
2019-03-23T04:50:37.934Z,22.70
2019-03-23T04:51:13.927Z,27.07
2019-03-23T04:51:50.218Z,24.10
2019-03-23T04:52:26.233Z,23.07
2019-03-23T04:53:02.672Z,23.03
2019-03-23T04:53:38.639Z,25.43
2019-03-23T04:54:14.623Z,23.50
2019-03-23T04:54:51.025Z,25.97
2019-03-23T04:55:27.133Z,22.20
2019-03-23T04:56:03.120Z,24.83
2019-03-23T04:56:39.089Z,23.43
2019-03-23T04:57:15.305Z,22.13
2019-03-23T04:57:51.278Z,21.70
2019-03-23T04:58:27.268Z,22.13
2019-03-23T04:59:03.264Z,23.30
2019-03-23T04:59:39.279Z,22.93
2019-03-23T05:00:16.249Z,23.57
2019-03-23T05:00:52.620Z,22.63
2019-03-23T05:01:28.736Z,21.93
2019-03-23T05:02:05.167Z,21.90
2019-03-23T05:02:41.162Z,24.43
2019-03-23T05:03:17.145Z,21.93
2019-03-23T05:03:53.552Z,22.87
2019-03-23T05:04:30.220Z,23.20
2019-03-23T05:05:06.617Z,24.77
2019-03-23T05:05:42.696Z,19.53
2019-03-23T05:06:18.653Z,18.53
2019-03-23T05:06:54.652Z,21.43
2019-03-23T05:07:30.641Z,20.27
2019-03-23T05:08:06.613Z,22.67
2019-03-23T05:08:42.582Z,20.30
2019-03-23T05:09:18.589Z,21.50
2019-03-23T05:09:54.596Z,25.77
2019-03-23T05:10:30.685Z,18.27
2019-03-23T05:11:06.853Z,22.73
2019-03-23T05:11:42.836Z,24.40
2019-03-23T05:12:18.825Z,21.20
2019-03-23T05:12:55.060Z,24.63
2019-03-23T05:13:31.164Z,22.73
2019-03-23T05:14:07.148Z,22.00
2019-03-23T05:14:43.157Z,24.10
2019-03-23T05:15:19.134Z,22.17
2019-03-23T05:15:55.254Z,20.53
2019-03-23T05:16:31.916Z,21.93
2019-03-23T05:17:07.968Z,22.87
2019-03-23T05:17:43.936Z,23.80
2019-03-23T05:18:20.129Z,21.23
2019-03-23T05:18:56.134Z,23.03
2019-03-23T05:19:32.190Z,20.70
2019-03-23T05:20:08.875Z,22.83
2019-03-23T05:20:44.860Z,19.87
2019-03-23T05:21:21.071Z,21.60
2019-03-23T05:21:57.220Z,19.90
2019-03-23T05:22:33.298Z,20.30
2019-03-23T05:23:09.268Z,22.50
2019-03-23T05:23:45.921Z,24.87
2019-03-23T05:24:23.422Z,21.30
2019-03-23T05:24:59.542Z,22.10
2019-03-23T05:25:35.978Z,19.40
2019-03-23T05:26:11.942Z,22.40
2019-03-23T05:26:48.764Z,21.10
2019-03-23T05:27:25.273Z,26.20
2019-03-23T05:28:01.404Z,21.33
2019-03-23T05:28:37.794Z,22.77
2019-03-23T05:29:13.822Z,19.80
2019-03-23T05:29:50.148Z,21.23
2019-03-23T05:30:26.399Z,18.60
2019-03-23T05:31:02.804Z,20.00
2019-03-23T05:31:38.860Z,22.93
2019-03-23T05:32:14.843Z,20.23
2019-03-23T05:32:50.871Z,19.03
2019-03-23T05:33:26.832Z,21.80
2019-03-23T05:34:02.918Z,22.17
2019-03-23T05:34:39.318Z,21.20
2019-03-23T05:35:15.284Z,24.37
2019-03-23T05:35:51.406Z,24.30
2019-03-23T05:36:27.730Z,21.20
2019-03-23T05:37:03.719Z,26.20
2019-03-23T05:37:39.685Z,20.57
2019-03-23T05:38:16.032Z,19.90
2019-03-23T05:38:52.057Z,20.10
2019-03-23T05:39:28.528Z,20.83
2019-03-23T05:40:04.891Z,22.50
2019-03-23T05:40:39.413Z,22.03
2019-03-23T05:41:15.167Z,21.40
2019-03-23T05:41:51.247Z,18.70
2019-03-23T05:42:27.274Z,24.13
2019-03-23T05:43:03.247Z,21.93
2019-03-23T05:43:39.210Z,21.10
2019-03-23T05:44:15.612Z,22.70
2019-03-23T05:44:51.625Z,24.67
2019-03-23T05:45:27.706Z,20.57
2019-03-23T05:46:03.774Z,24.60
2019-03-23T05:46:39.743Z,24.27
2019-03-23T05:47:15.705Z,20.87
2019-03-23T05:47:51.736Z,20.10
2019-03-23T05:48:27.860Z,19.53
2019-03-23T05:49:04.147Z,21.40
2019-03-23T05:49:40.710Z,19.13
2019-03-23T05:50:17.070Z,28.53
2019-03-23T05:50:53.123Z,22.67
2019-03-23T05:51:29.578Z,22.10
2019-03-23T05:52:05.644Z,21.73
2019-03-23T05:52:41.605Z,21.67
2019-03-23T05:53:17.697Z,27.70
2019-03-23T05:53:54.554Z,19.23
2019-03-23T05:54:30.554Z,22.30
2019-03-23T05:55:06.922Z,22.00
2019-03-23T05:55:42.917Z,20.60
2019-03-23T05:56:18.897Z,22.53
2019-03-23T05:56:54.888Z,20.93
2019-03-23T05:57:30.860Z,21.83
2019-03-23T05:58:06.842Z,25.37
2019-03-23T05:58:42.810Z,25.07
2019-03-23T05:59:18.873Z,23.23
2019-03-23T05:59:54.910Z,23.27
2019-03-23T06:00:31.421Z,22.10
2019-03-23T06:01:07.403Z,24.83
2019-03-23T06:01:43.384Z,21.87
2019-03-23T06:02:20.489Z,21.87
2019-03-23T06:02:56.488Z,20.60
2019-03-23T06:03:32.465Z,24.13
2019-03-23T06:04:08.546Z,23.13
2019-03-23T06:04:44.527Z,21.07
2019-03-23T06:05:20.868Z,22.47
2019-03-23T06:05:56.971Z,20.90
2019-03-23T06:06:33.036Z,19.93
2019-03-23T06:07:09.009Z,23.20
2019-03-23T06:07:45.169Z,19.43
2019-03-23T06:08:21.255Z,20.60
2019-03-23T06:08:57.236Z,24.13
2019-03-23T06:09:33.220Z,22.13
2019-03-23T06:10:10.009Z,23.10
2019-03-23T06:10:46.010Z,26.07
2019-03-23T06:11:22.021Z,21.53
2019-03-23T06:11:58.484Z,20.77
2019-03-23T06:12:34.451Z,24.57
2019-03-23T06:13:10.410Z,26.07
2019-03-23T06:13:46.494Z,24.23
2019-03-23T06:14:22.657Z,19.67
2019-03-23T06:14:58.675Z,22.70
2019-03-23T06:15:34.639Z,27.37
2019-03-23T06:16:10.690Z,22.77
2019-03-23T06:16:46.659Z,21.83
2019-03-23T06:17:22.677Z,20.53
2019-03-23T06:17:58.695Z,22.60
2019-03-23T06:18:34.761Z,25.00
2019-03-23T06:19:10.721Z,24.73
2019-03-23T06:19:47.056Z,25.17
2019-03-23T06:20:23.205Z,22.50
2019-03-23T06:20:59.185Z,23.53
2019-03-23T06:21:35.272Z,19.67
2019-03-23T06:22:11.339Z,22.67
2019-03-23T06:22:47.405Z,29.67
2019-03-23T06:23:23.738Z,23.93
2019-03-23T06:24:00.115Z,25.93
2019-03-23T06:24:36.099Z,22.80
2019-03-23T06:25:12.282Z,28.00
2019-03-23T06:25:48.255Z,22.87
2019-03-23T06:26:24.708Z,28.10
2019-03-23T06:27:01.215Z,25.73
2019-03-23T06:27:37.713Z,26.93
2019-03-23T06:28:13.770Z,24.97
2019-03-23T06:28:49.753Z,23.17
2019-03-23T06:29:25.751Z,26.17
2019-03-23T06:30:01.778Z,23.47
2019-03-23T06:30:38.133Z,21.93
2019-03-23T06:31:14.449Z,25.73
2019-03-23T06:31:50.443Z,23.20
2019-03-23T06:32:26.933Z,20.73
2019-03-23T06:33:02.985Z,23.53
2019-03-23T06:33:39.248Z,21.73
2019-03-23T06:34:15.231Z,22.97
2019-03-23T06:34:51.414Z,24.07
2019-03-23T06:35:27.427Z,25.03
2019-03-23T06:36:03.443Z,23.20
2019-03-23T06:36:39.406Z,26.03
2019-03-23T06:37:15.736Z,27.70
2019-03-23T06:37:52.261Z,27.20
2019-03-23T06:38:28.731Z,23.83
2019-03-23T06:39:06.196Z,26.77
2019-03-23T06:39:42.178Z,24.97
2019-03-23T06:40:18.490Z,22.90
2019-03-23T06:40:54.856Z,24.10
2019-03-23T06:41:30.926Z,24.47
2019-03-23T06:42:07.001Z,22.37
2019-03-23T06:42:43.287Z,21.10
2019-03-23T06:43:19.252Z,21.70
2019-03-23T06:43:55.476Z,21.67
2019-03-23T06:44:31.698Z,25.10
2019-03-23T06:45:08.963Z,22.97
2019-03-23T06:45:45.366Z,24.87
2019-03-23T06:46:21.400Z,28.97
2019-03-23T06:46:57.405Z,24.33
2019-03-23T06:47:33.375Z,24.63
2019-03-23T06:48:09.330Z,23.53
2019-03-23T06:48:45.320Z,24.07
2019-03-23T06:49:21.368Z,24.83
2019-03-23T06:49:57.394Z,22.27
2019-03-23T06:50:33.356Z,27.83
2019-03-23T06:51:09.328Z,23.10
2019-03-23T06:51:45.300Z,25.67
2019-03-23T06:52:21.375Z,25.63
2019-03-23T06:52:57.363Z,23.13
2019-03-23T06:53:33.884Z,23.67
2019-03-23T06:54:09.850Z,21.67
2019-03-23T06:54:45.852Z,22.70
2019-03-23T06:55:21.886Z,21.93
2019-03-23T06:55:57.881Z,25.07
2019-03-23T06:56:33.908Z,26.80
2019-03-23T06:57:09.886Z,21.70
2019-03-23T06:57:45.950Z,24.77
2019-03-23T06:58:22.129Z,27.80
2019-03-23T06:58:59.431Z,23.70
2019-03-23T06:59:35.455Z,26.37
2019-03-23T07:00:13.383Z,24.47
2019-03-23T07:00:49.822Z,25.40
2019-03-23T07:01:26.213Z,26.37
2019-03-23T07:02:02.198Z,23.83
2019-03-23T07:02:38.196Z,26.07
2019-03-23T07:03:14.531Z,21.10
2019-03-23T07:03:50.847Z,23.00
2019-03-23T07:04:27.010Z,22.83
2019-03-23T07:05:02.963Z,24.87
2019-03-23T07:05:39.131Z,25.27
2019-03-23T07:06:15.366Z,26.73
2019-03-23T07:06:51.377Z,27.23
2019-03-23T07:07:27.378Z,23.63
2019-03-23T07:08:03.382Z,25.40
2019-03-23T07:08:39.361Z,29.67
2019-03-23T07:09:16.638Z,23.87
2019-03-23T07:09:52.782Z,22.30
2019-03-23T07:10:28.766Z,25.83
2019-03-23T07:11:04.759Z,22.90
2019-03-23T07:11:40.826Z,25.43
2019-03-23T07:12:16.893Z,29.90
2019-03-23T07:12:52.906Z,23.37
2019-03-23T07:13:29.129Z,22.47
2019-03-23T07:14:05.735Z,22.27
2019-03-23T07:14:41.684Z,25.33
2019-03-23T07:15:20.259Z,24.30
2019-03-23T07:15:56.652Z,22.83
2019-03-23T07:16:32.623Z,25.47
2019-03-23T07:17:08.589Z,22.77
2019-03-23T07:17:44.555Z,26.30
2019-03-23T07:18:21.012Z,22.50
2019-03-23T07:18:57.112Z,27.80
2019-03-23T07:19:33.071Z,25.57
2019-03-23T07:20:10.846Z,23.50
2019-03-23T07:20:46.786Z,25.67
2019-03-23T07:21:22.790Z,23.37
2019-03-23T07:21:58.768Z,22.40
2019-03-23T07:22:35.159Z,25.57
2019-03-23T07:23:11.150Z,25.83
2019-03-23T07:23:47.207Z,23.73
2019-03-23T07:24:23.743Z,22.83
2019-03-23T07:24:59.758Z,23.13
2019-03-23T07:25:36.073Z,23.33
2019-03-23T07:26:12.351Z,24.13
2019-03-23T07:26:48.325Z,28.57
2019-03-23T07:27:24.308Z,22.53
2019-03-23T07:28:00.276Z,23.63
2019-03-23T07:28:36.260Z,26.50
2019-03-23T07:29:12.569Z,26.00
2019-03-23T07:29:48.583Z,22.67
2019-03-23T07:30:24.671Z,21.90
2019-03-23T07:31:00.667Z,23.87
2019-03-23T07:31:36.653Z,24.07
2019-03-23T07:32:12.630Z,23.50
2019-03-23T07:32:48.621Z,24.37
2019-03-23T07:33:24.625Z,25.17
2019-03-23T07:34:00.611Z,25.50
2019-03-23T07:34:37.046Z,23.57
2019-03-23T07:35:13.250Z,23.50
2019-03-23T07:35:49.246Z,21.60
2019-03-23T07:36:25.281Z,25.53
2019-03-23T07:37:01.260Z,24.77
2019-03-23T07:37:37.222Z,20.90
2019-03-23T07:38:13.204Z,23.77
2019-03-23T07:38:49.279Z,24.77
2019-03-23T07:39:29.121Z,24.30
2019-03-23T07:40:03.063Z,24.63
2019-03-23T07:40:39.130Z,23.73
2019-03-23T07:41:15.095Z,23.27
2019-03-23T07:41:51.122Z,27.17
2019-03-23T07:42:27.137Z,25.27
2019-03-23T07:43:03.457Z,22.97
2019-03-23T07:43:39.395Z,23.03
2019-03-23T07:44:15.362Z,25.13
2019-03-23T07:44:51.373Z,23.17
2019-03-23T07:45:28.648Z,27.13
2019-03-23T07:46:05.105Z,24.80